createdAt,value
2019-06-10T00:01:43.439Z,52147.84
2019-06-10T00:04:13.407Z,52126.11
2019-06-10T00:06:43.773Z,52155.74
2019-06-10T00:09:13.955Z,52143.89
2019-06-10T00:11:44.229Z,52111.29
2019-06-10T00:14:13.701Z,52133.02
2019-06-10T00:16:43.872Z,52111.29
2019-06-10T00:19:14.270Z,52132.03
2019-06-10T00:21:44.694Z,52111.29
2019-06-10T00:24:14.498Z,52076.72
2019-06-10T00:26:45.028Z,52088.57
2019-06-10T00:29:14.824Z,52091.54
2019-06-10T00:31:44.666Z,52031.29
2019-06-10T00:34:14.434Z,52030.30
2019-06-10T00:36:44.507Z,51978.94
2019-06-10T00:39:14.637Z,51977.96
2019-06-10T00:41:45.312Z,51984.87
2019-06-10T00:44:15.387Z,51972.03
2019-06-10T00:46:45.784Z,51959.19
2019-06-10T00:49:15.228Z,51920.67
2019-06-10T00:51:44.651Z,51964.13
2019-06-10T00:54:15.687Z,51900.92
2019-06-10T00:56:45.786Z,51911.79
2019-06-10T00:59:15.800Z,51914.75
2019-06-10T01:01:45.965Z,51913.76
2019-06-10T01:04:16.438Z,51908.82
2019-06-10T01:06:46.155Z,51891.04
2019-06-10T01:09:16.543Z,51855.49
2019-06-10T01:11:46.908Z,51846.60
2019-06-10T01:14:16.983Z,51856.48
2019-06-10T01:16:46.744Z,51856.48
2019-06-10T01:19:17.144Z,51851.54
2019-06-10T01:21:47.571Z,51863.39
2019-06-10T01:24:17.507Z,51891.04
2019-06-10T01:26:47.112Z,51852.53
2019-06-10T01:29:20.835Z,51856.48
2019-06-10T01:31:51.065Z,51849.56
2019-06-10T01:34:21.808Z,51850.55
2019-06-10T01:36:50.916Z,51854.50
2019-06-10T01:39:22.676Z,51894.00
2019-06-10T01:41:51.387Z,51830.80
2019-06-10T01:44:22.031Z,51863.39
2019-06-10T01:46:51.645Z,51856.48
2019-06-10T01:49:22.009Z,51808.08
2019-06-10T01:51:51.933Z,51843.64
2019-06-10T01:54:22.234Z,51886.11
2019-06-10T01:56:52.243Z,51844.63
2019-06-10T01:59:22.271Z,51845.61
2019-06-10T02:01:52.241Z,51852.53
2019-06-10T02:04:22.918Z,51849.56
2019-06-10T02:06:53.145Z,51844.63
2019-06-10T02:09:23.317Z,51842.65
2019-06-10T02:11:53.138Z,51844.63
2019-06-10T02:14:24.154Z,51787.34
2019-06-10T02:16:53.557Z,51785.37
2019-06-10T02:19:23.552Z,51864.38
2019-06-10T02:21:53.398Z,51814.01
2019-06-10T02:24:23.545Z,51855.49
2019-06-10T02:26:53.446Z,51855.49
2019-06-10T02:29:23.700Z,51821.91
2019-06-10T02:31:53.423Z,51790.30
2019-06-10T02:34:27.137Z,51822.90
2019-06-10T02:36:54.007Z,51894.00
2019-06-10T02:39:32.324Z,51823.89
2019-06-10T02:41:54.265Z,51937.46
2019-06-10T02:44:31.915Z,51851.54
2019-06-10T02:46:54.684Z,51846.60
2019-06-10T02:49:46.901Z,51848.58
2019-06-10T02:51:55.563Z,51843.64
2019-06-10T02:54:31.354Z,51848.58
2019-06-10T02:56:55.505Z,51884.13
2019-06-10T02:59:28.980Z,51959.19
2019-06-10T03:01:55.482Z,51901.91
2019-06-10T03:04:31.451Z,51969.07
2019-06-10T03:06:56.315Z,51949.32
2019-06-10T03:09:31.393Z,51902.89
2019-06-10T03:11:57.445Z,52088.57
2019-06-10T03:14:28.188Z,52016.48
2019-06-10T03:16:58.594Z,51982.89
2019-06-10T03:19:41.837Z,51972.03
2019-06-10T03:21:59.405Z,52030.30
2019-06-10T03:24:29.472Z,52022.40
2019-06-10T03:26:59.283Z,52020.43
2019-06-10T03:29:28.989Z,51974.01
2019-06-10T03:31:58.976Z,51974.01
2019-06-10T03:34:36.349Z,52088.57
2019-06-10T03:37:02.335Z,52189.32
2019-06-10T03:39:32.244Z,52157.71
2019-06-10T03:42:02.599Z,52271.30
2019-06-10T03:44:33.038Z,52213.02
2019-06-10T03:47:03.515Z,52197.22
2019-06-10T03:49:46.482Z,52307.85
2019-06-10T03:52:04.364Z,52355.26
2019-06-10T03:54:34.716Z,52194.26
2019-06-10T03:57:04.676Z,52346.37
2019-06-10T03:59:34.832Z,52297.97
2019-06-10T04:02:05.152Z,52276.24
2019-06-10T04:04:35.423Z,52330.56
2019-06-10T04:07:05.625Z,52349.33
2019-06-10T04:09:35.159Z,52246.61
2019-06-10T04:12:05.474Z,52358.22
2019-06-10T04:14:36.335Z,52353.28
2019-06-10T04:17:07.241Z,52362.17
2019-06-10T04:19:37.645Z,52402.67
2019-06-10T04:22:09.318Z,52335.50
2019-06-10T04:24:39.715Z,52485.64
2019-06-10T04:27:09.469Z,52537.01
2019-06-10T04:29:39.546Z,52414.52
2019-06-10T04:32:09.629Z,52515.27
2019-06-10T04:34:39.709Z,52476.75
2019-06-10T04:37:09.464Z,52368.10
2019-06-10T04:39:39.599Z,52639.74
2019-06-10T04:42:09.954Z,52486.63
2019-06-10T04:44:42.199Z,52611.09
2019-06-10T04:47:12.069Z,52753.34
2019-06-10T04:49:42.862Z,52505.40
2019-06-10T04:52:12.312Z,52580.47
2019-06-10T04:54:42.758Z,52628.87
2019-06-10T04:57:13.075Z,52793.84
2019-06-10T04:59:43.307Z,52616.03
2019-06-10T05:02:13.469Z,52742.47
2019-06-10T05:04:43.547Z,52435.27
2019-06-10T05:07:13.647Z,52677.27
2019-06-10T05:09:43.879Z,52664.43
2019-06-10T05:12:14.121Z,52785.94
2019-06-10T05:14:44.202Z,52910.41
2019-06-10T05:17:14.274Z,52874.84
2019-06-10T05:19:44.822Z,52734.57
2019-06-10T05:33:04.566Z,52867.93
2019-06-10T05:35:35.161Z,52931.16
2019-06-10T05:38:05.152Z,52961.78
2019-06-10T05:40:35.554Z,52823.48
2019-06-10T05:43:06.270Z,52996.36
2019-06-10T05:45:36.387Z,53082.30
2019-06-10T05:48:06.761Z,53161.34
2019-06-10T05:50:36.838Z,53123.80
2019-06-10T05:53:06.911Z,53158.37
2019-06-10T05:55:37.010Z,53284.84
2019-06-10T05:58:07.270Z,53039.82
2019-06-10T06:00:36.807Z,53236.43
2019-06-10T06:03:07.555Z,53110.96
2019-06-10T06:05:38.278Z,53157.39
2019-06-10T06:08:09.133Z,53043.78
2019-06-10T06:10:39.393Z,52964.74
2019-06-10T06:13:09.743Z,53170.23
2019-06-10T06:15:42.253Z,53191.96
2019-06-10T06:18:13.433Z,53253.22
2019-06-10T06:20:45.148Z,53263.10
2019-06-10T06:23:15.545Z,53053.66
2019-06-10T06:25:47.051Z,53116.88
2019-06-10T06:28:16.321Z,53192.95
2019-06-10T06:30:46.395Z,53184.06
2019-06-10T06:33:16.253Z,53274.96
2019-06-10T06:35:46.700Z,53129.73
2019-06-10T06:38:17.306Z,53300.64
2019-06-10T06:40:47.878Z,53441.93
2019-06-10T06:43:18.115Z,53351.03
2019-06-10T06:45:48.269Z,53284.84
2019-06-10T06:48:18.312Z,53364.86
2019-06-10T06:51:01.769Z,53388.57
2019-06-10T06:53:28.929Z,53282.86
2019-06-10T06:55:48.581Z,53406.36
2019-06-10T06:58:18.363Z,53312.50
2019-06-10T07:01:03.656Z,53371.78
2019-06-10T07:03:19.110Z,53433.04
2019-06-10T07:05:49.787Z,53456.75
2019-06-10T07:08:19.878Z,53513.07
2019-06-10T07:10:52.104Z,53311.51
2019-06-10T07:13:22.138Z,53415.25
2019-06-10T07:15:53.319Z,53626.69
2019-06-10T07:18:23.235Z,53454.77
2019-06-10T07:20:54.090Z,53587.17
2019-06-10T07:23:23.397Z,53499.23
2019-06-10T07:25:53.995Z,53626.69
2019-06-10T07:28:23.707Z,53545.67
2019-06-10T07:30:55.352Z,53309.54
2019-06-10T07:33:24.196Z,53553.57
2019-06-10T07:35:56.574Z,53370.79
2019-06-10T07:38:26.281Z,53441.93
2019-06-10T07:40:55.547Z,53674.12
2019-06-10T07:43:26.153Z,53565.43
2019-06-10T07:45:56.186Z,53618.79
2019-06-10T07:48:25.818Z,53550.61
2019-06-10T07:50:55.394Z,53713.64
2019-06-10T07:53:24.827Z,53619.77
2019-06-10T07:55:54.770Z,53609.89
2019-06-10T07:58:24.619Z,53870.75
2019-06-10T08:00:54.368Z,53921.14
2019-06-10T08:03:24.185Z,53920.16
2019-06-10T08:05:54.269Z,53931.03
2019-06-10T08:08:24.410Z,54002.17
2019-06-10T08:10:54.448Z,54072.33
2019-06-10T08:13:24.831Z,54104.94
2019-06-10T08:15:54.591Z,54009.09
2019-06-10T08:18:24.028Z,54241.31
2019-06-10T08:20:53.788Z,54114.82
2019-06-10T08:23:23.931Z,54198.82
2019-06-10T08:25:57.597Z,54015.02
2019-06-10T08:28:24.359Z,54028.85
2019-06-10T08:30:54.752Z,54495.29
2019-06-10T08:33:25.148Z,53951.78
2019-06-10T08:36:00.168Z,53905.33
2019-06-10T08:38:26.270Z,54048.62
2019-06-10T08:40:56.671Z,54391.52
2019-06-10T08:43:27.387Z,54151.39
2019-06-10T08:45:57.790Z,54227.48
2019-06-10T08:48:27.868Z,54265.03
2019-06-10T08:50:58.268Z,54506.16
2019-06-10T08:53:28.488Z,54553.60
2019-06-10T08:55:59.080Z,54302.58
2019-06-10T08:58:29.796Z,54541.74
2019-06-10T09:01:02.126Z,54495.29
2019-06-10T09:03:32.454Z,54523.95
2019-06-10T09:06:02.694Z,54651.45
2019-06-10T09:08:32.663Z,54675.16
2019-06-10T09:11:02.752Z,54558.54
2019-06-10T09:13:33.598Z,54645.52
2019-06-10T09:16:14.618Z,54659.35
2019-06-10T09:18:34.920Z,54480.47
2019-06-10T09:21:05.414Z,54720.62
2019-06-10T09:23:35.395Z,54553.60
2019-06-10T09:26:05.746Z,54482.45
2019-06-10T09:28:36.199Z,54569.41
2019-06-10T09:31:06.920Z,54519.01
2019-06-10T09:33:37.309Z,54807.60
2019-06-10T09:36:07.109Z,54889.64
2019-06-10T09:38:36.916Z,54732.49
2019-06-10T09:41:06.916Z,54825.39
2019-06-10T09:43:37.004Z,54578.31
2019-06-10T09:46:07.439Z,54637.61
2019-06-10T09:48:37.551Z,54737.43
2019-06-10T09:51:07.874Z,54703.82
2019-06-10T09:53:42.706Z,54798.71
2019-06-10T09:56:08.768Z,54729.52
2019-06-10T09:58:39.095Z,54843.18
2019-06-10T10:01:09.396Z,54921.27
2019-06-10T10:03:39.239Z,54788.82
2019-06-10T10:06:15.321Z,54876.79
2019-06-10T10:08:41.367Z,54919.29
2019-06-10T10:11:12.828Z,54867.89
2019-06-10T10:13:45.008Z,55256.34
2019-06-10T10:16:13.190Z,55093.25
2019-06-10T10:18:47.358Z,54894.58
2019-06-10T10:21:13.591Z,54899.52
2019-06-10T10:23:56.590Z,54898.53
2019-06-10T10:26:14.749Z,54748.30
2019-06-10T10:28:46.865Z,54708.77
2019-06-10T10:31:16.201Z,54981.55
2019-06-10T10:33:46.795Z,55007.25
2019-06-10T10:36:16.988Z,54953.88
2019-06-10T10:38:47.070Z,54774.99
2019-06-10T10:41:17.692Z,54847.14
2019-06-10T10:43:51.185Z,54847.14
2019-06-10T10:46:18.445Z,54824.41
2019-06-10T10:48:49.028Z,54944.00
2019-06-10T10:51:19.080Z,54859.98
2019-06-10T10:54:15.504Z,54812.54
2019-06-10T10:56:22.177Z,54866.91
2019-06-10T10:58:55.619Z,54812.54
2019-06-10T11:01:23.471Z,54931.15
2019-06-10T11:03:58.728Z,54878.77
2019-06-10T11:06:23.606Z,54833.30
2019-06-10T11:08:55.843Z,54844.17
2019-06-10T11:11:24.832Z,54767.08
2019-06-10T11:13:56.884Z,54821.44
2019-06-10T11:16:25.531Z,54854.05
2019-06-10T11:18:56.428Z,54855.04
2019-06-10T11:21:26.314Z,54971.67
2019-06-10T11:24:01.279Z,55051.73
2019-06-10T11:26:27.556Z,55058.65
2019-06-10T11:28:58.061Z,55109.06
2019-06-10T11:31:28.364Z,55266.23
2019-06-10T11:33:59.178Z,55275.12
2019-06-10T11:36:29.154Z,55195.06
2019-06-10T11:38:59.550Z,55274.13
2019-06-10T11:41:29.640Z,55269.19
2019-06-10T11:43:59.463Z,55298.85
2019-06-10T11:46:29.491Z,55216.80
2019-06-10T11:48:59.602Z,55214.83
2019-06-10T11:51:29.763Z,55111.04
2019-06-10T11:53:59.718Z,55053.71
2019-06-10T11:56:33.022Z,55072.49
2019-06-10T11:59:07.952Z,55024.06
2019-06-10T12:01:31.612Z,54964.75
2019-06-10T12:04:04.069Z,54879.75
2019-06-10T12:06:33.964Z,54774.99
2019-06-10T12:09:03.392Z,54648.48
2019-06-10T12:11:34.319Z,54812.54
2019-06-10T12:14:04.568Z,54740.39
2019-06-10T12:19:05.446Z,54756.21
2019-06-10T12:21:35.199Z,54730.51
2019-06-10T12:24:05.488Z,54719.64
2019-06-10T12:26:35.357Z,54710.75
2019-06-10T12:29:06.009Z,54668.25
2019-06-10T12:31:36.046Z,54668.25
2019-06-10T12:34:06.031Z,54663.30
2019-06-10T12:36:35.915Z,54662.32
2019-06-10T12:39:10.620Z,54667.26
2019-06-10T12:44:12.081Z,54634.64
2019-06-10T12:46:43.095Z,54576.33
2019-06-10T12:49:14.212Z,54570.40
2019-06-10T12:51:46.044Z,54540.75
2019-06-10T12:54:15.950Z,54509.13
2019-06-10T12:56:46.432Z,54480.47
2019-06-10T12:59:17.148Z,54445.88
2019-06-10T13:01:47.348Z,54432.04
2019-06-10T13:04:17.951Z,54444.89
2019-06-10T13:06:48.048Z,54388.56
2019-06-10T13:09:18.415Z,54384.61
2019-06-10T13:11:49.368Z,54319.38
2019-06-10T13:14:21.943Z,54308.51
2019-06-10T13:16:52.482Z,54287.76
2019-06-10T13:19:23.114Z,54290.73
2019-06-10T13:21:52.924Z,54266.02
2019-06-10T13:24:22.454Z,54243.29
2019-06-10T13:26:53.502Z,54243.29
2019-06-10T13:29:25.031Z,54211.67
2019-06-10T13:31:54.391Z,54198.82
2019-06-10T13:34:24.040Z,54189.93
2019-06-10T13:36:53.958Z,54196.84
2019-06-10T13:39:26.934Z,54163.25
2019-06-10T13:41:57.535Z,54162.26
2019-06-10T13:44:26.508Z,54101.98
2019-06-10T13:46:59.534Z,54134.59
2019-06-10T13:49:29.189Z,54082.21
2019-06-10T13:51:59.429Z,54051.58
2019-06-10T13:54:29.118Z,54064.43
2019-06-10T13:56:59.254Z,54036.76
2019-06-10T13:59:28.990Z,54033.79
2019-06-10T14:04:44.040Z,53962.64
2019-06-10T14:07:24.781Z,53920.16
2019-06-10T14:09:56.274Z,53920.16
2019-06-10T14:12:26.457Z,53917.19
2019-06-10T14:14:55.988Z,53862.84
2019-06-10T14:17:25.260Z,53872.73
2019-06-10T14:19:53.955Z,53835.18
2019-06-10T14:22:24.048Z,53754.15
2019-06-10T14:24:53.899Z,53778.86
2019-06-10T14:27:24.763Z,53817.39
2019-06-10T14:29:52.918Z,53771.94
2019-06-10T14:32:22.794Z,53716.61
2019-06-10T14:34:52.636Z,53739.33
2019-06-10T14:37:34.908Z,53741.31
2019-06-10T14:39:52.896Z,53693.88
2019-06-10T14:42:23.037Z,53715.62
2019-06-10T14:44:53.163Z,53678.07
2019-06-10T14:47:23.160Z,53658.31
2019-06-10T14:49:53.087Z,53678.07
2019-06-10T14:52:22.720Z,53656.33
2019-06-10T14:54:53.198Z,53628.67
2019-06-10T14:57:22.915Z,53625.70
2019-06-10T14:59:53.634Z,53623.73
2019-06-10T15:02:23.788Z,53627.68
2019-06-10T15:04:53.544Z,53629.65
2019-06-10T15:07:23.807Z,53620.76
2019-06-10T15:09:53.319Z,53665.22
2019-06-10T15:12:23.021Z,53652.38
2019-06-10T15:14:53.789Z,53621.75
2019-06-10T15:17:23.193Z,53567.41
2019-06-10T15:19:53.076Z,53620.76
2019-06-10T15:22:23.861Z,53623.73
2019-06-10T15:24:53.949Z,53617.80
2019-06-10T15:27:29.914Z,53591.12
2019-06-10T15:29:53.632Z,53618.79
2019-06-10T15:32:33.723Z,53601.00
2019-06-10T15:34:55.392Z,53606.93
2019-06-10T15:37:28.824Z,53593.10
2019-06-10T15:39:57.158Z,53619.77
2019-06-10T15:42:26.910Z,53640.52
2019-06-10T15:44:57.193Z,53608.91
2019-06-10T15:47:27.385Z,53611.87
2019-06-10T15:49:57.788Z,53508.12
2019-06-10T15:52:27.628Z,53526.90
2019-06-10T15:54:58.408Z,53517.02
2019-06-10T15:57:39.319Z,53511.09
2019-06-10T15:59:58.832Z,53532.82
2019-06-10T16:02:28.840Z,53502.20
2019-06-10T16:04:58.921Z,53506.15
2019-06-10T16:07:29.005Z,53471.57
2019-06-10T16:10:02.700Z,53460.70
2019-06-10T16:12:32.904Z,53437.97
2019-06-10T16:15:02.656Z,53415.25
2019-06-10T16:17:33.185Z,53411.30
2019-06-10T16:20:03.626Z,53409.32
2019-06-10T16:22:31.607Z,53409.32
2019-06-10T16:25:03.467Z,53412.29
2019-06-10T16:27:46.290Z,53406.36
2019-06-10T16:30:03.797Z,53368.82
2019-06-10T16:32:33.628Z,53318.43
2019-06-10T16:35:04.024Z,53395.49
2019-06-10T16:37:33.877Z,53311.51
2019-06-10T16:40:03.490Z,53353.00
2019-06-10T16:42:33.332Z,53289.77
2019-06-10T16:45:03.397Z,53247.29
2019-06-10T16:47:32.825Z,53285.82
2019-06-10T16:50:03.709Z,53249.27
2019-06-10T16:52:34.252Z,53249.27
2019-06-10T16:55:03.003Z,53269.03
2019-06-10T16:57:33.442Z,53187.03
2019-06-10T17:00:10.907Z,53226.54
2019-06-10T17:02:33.370Z,53184.06
2019-06-10T17:05:03.293Z,53244.33
2019-06-10T17:07:32.995Z,53235.44
2019-06-10T17:10:02.597Z,53157.39
2019-06-10T17:12:33.129Z,53116.88
2019-06-10T17:15:03.581Z,53107.00
2019-06-10T17:17:34.109Z,53117.87
2019-06-10T17:20:04.846Z,53171.22
2019-06-10T17:22:35.550Z,53207.77
2019-06-10T17:25:06.277Z,53173.20
2019-06-10T17:27:36.851Z,53123.80
2019-06-10T17:30:06.496Z,53161.34
2019-06-10T17:32:36.844Z,53089.22
2019-06-10T17:35:09.491Z,53103.05
2019-06-10T17:37:39.039Z,53119.85
2019-06-10T17:40:08.743Z,53117.87
2019-06-10T17:42:38.747Z,53102.06
2019-06-10T17:45:08.304Z,53125.77
2019-06-10T17:47:38.593Z,53085.27
2019-06-10T17:50:08.727Z,53111.94
2019-06-10T17:52:38.986Z,53068.47
2019-06-10T17:55:12.559Z,53079.34
2019-06-10T17:57:42.992Z,53123.80
2019-06-10T18:00:14.900Z,53118.86
2019-06-10T18:02:53.531Z,53155.41
2019-06-10T18:05:22.517Z,53070.45
2019-06-10T18:07:52.689Z,53127.75
2019-06-10T18:10:23.992Z,53112.93
2019-06-10T18:12:52.943Z,53089.22
2019-06-10T18:15:24.043Z,53136.64
2019-06-10T18:17:55.876Z,53122.81
2019-06-10T18:20:24.413Z,53086.26
2019-06-10T18:22:54.104Z,53031.92
2019-06-10T18:25:24.581Z,53052.67
2019-06-10T18:27:54.912Z,53118.86
2019-06-10T18:30:25.117Z,53137.63
2019-06-10T18:32:55.075Z,53123.80
2019-06-10T18:35:25.842Z,53063.54
2019-06-10T18:37:55.234Z,53080.33
2019-06-10T18:40:25.315Z,53051.68
2019-06-10T18:42:55.674Z,53091.20
2019-06-10T18:45:26.016Z,53039.82
2019-06-10T18:47:55.622Z,53073.41
2019-06-10T18:50:26.068Z,53042.79
2019-06-10T18:52:57.362Z,53037.85
2019-06-10T18:55:26.254Z,53043.78
2019-06-10T18:57:56.848Z,53056.62
2019-06-10T19:00:39.912Z,53066.50
2019-06-10T19:03:09.236Z,53110.96
2019-06-10T19:05:28.519Z,53042.79
2019-06-10T19:07:58.706Z,53115.89
2019-06-10T19:10:29.464Z,53055.63
2019-06-10T19:12:59.560Z,53120.83
2019-06-10T19:15:31.857Z,53073.41
2019-06-10T19:18:03.187Z,53110.96
2019-06-10T19:20:36.443Z,53044.77
2019-06-10T19:23:04.242Z,53027.97
2019-06-10T19:25:37.255Z,53030.93
2019-06-10T19:28:05.268Z,53072.43
2019-06-10T19:30:37.704Z,53063.54
2019-06-10T19:33:05.589Z,53101.07
2019-06-10T19:35:36.666Z,53030.93
2019-06-10T19:38:05.784Z,53097.12
2019-06-10T19:40:37.168Z,53058.59
2019-06-10T19:43:06.907Z,53039.82
2019-06-10T19:45:36.693Z,53072.43
2019-06-10T19:48:06.750Z,53042.79
2019-06-10T19:50:37.582Z,53031.92
2019-06-10T19:53:07.798Z,53075.39
2019-06-10T19:55:38.958Z,53121.82
2019-06-10T19:58:10.553Z,53051.68
2019-06-10T20:00:41.502Z,53023.03
2019-06-10T20:03:12.051Z,53045.75
2019-06-10T20:05:44.878Z,53053.66
2019-06-10T20:08:12.828Z,53110.96
2019-06-10T20:10:42.660Z,53045.75
2019-06-10T20:13:12.673Z,53071.44
2019-06-10T20:15:45.016Z,53072.43
2019-06-10T20:18:13.786Z,53104.04
2019-06-10T20:20:45.870Z,53032.91
2019-06-10T20:23:14.932Z,53082.30
2019-06-10T20:25:46.841Z,53044.77
2019-06-10T20:28:16.024Z,53005.25
2019-06-10T20:30:47.786Z,53015.12
2019-06-10T20:33:16.908Z,53042.79
2019-06-10T20:35:47.245Z,53056.62
2019-06-10T20:38:17.232Z,52999.32
2019-06-10T20:40:48.714Z,53032.91
2019-06-10T20:43:19.586Z,53054.64
2019-06-10T20:45:50.121Z,52997.34
2019-06-10T20:48:22.461Z,53067.48
2019-06-10T20:50:53.188Z,53056.62
2019-06-10T20:53:21.315Z,53036.86
2019-06-10T20:55:54.997Z,53084.28
2019-06-10T20:58:22.494Z,53111.94
2019-06-10T21:00:53.952Z,53090.21
2019-06-10T21:03:23.159Z,53081.32
2019-06-10T21:05:53.497Z,53007.22
2019-06-10T21:08:23.124Z,53041.80
2019-06-10T21:10:54.555Z,53018.09
2019-06-10T21:13:24.494Z,53005.25
2019-06-10T21:15:55.591Z,52996.36
2019-06-10T21:18:24.687Z,52990.43
2019-06-10T21:20:56.280Z,53007.22
2019-06-10T21:23:26.752Z,53043.78
2019-06-10T21:25:56.385Z,53100.09
2019-06-10T21:28:27.214Z,53053.66
2019-06-10T21:30:58.842Z,53060.57
2019-06-10T21:33:28.096Z,53049.70
2019-06-10T21:35:58.113Z,53088.23
2019-06-10T21:38:27.863Z,53054.64
2019-06-10T21:40:58.331Z,53101.07
2019-06-10T21:43:27.544Z,53111.94
2019-06-10T21:45:57.883Z,53110.96
2019-06-10T21:48:27.865Z,53037.85
2019-06-10T21:50:57.418Z,52996.36
2019-06-10T21:53:26.882Z,53027.97
2019-06-10T21:55:56.508Z,53040.81
2019-06-10T21:58:26.509Z,53056.62
2019-06-10T22:01:10.846Z,52990.43
2019-06-10T22:03:26.801Z,53019.08
2019-06-10T22:05:56.830Z,53080.33
2019-06-10T22:08:26.913Z,53040.81
2019-06-10T22:10:56.759Z,52998.33
2019-06-10T22:13:26.753Z,52997.34
2019-06-10T22:15:57.166Z,53056.62
2019-06-10T22:18:26.909Z,53061.56
2019-06-10T22:20:57.945Z,53017.10
2019-06-10T22:23:28.648Z,53116.88
2019-06-10T22:25:58.745Z,53177.15
2019-06-10T22:28:29.054Z,53175.17
2019-06-10T22:31:15.157Z,53133.68
2019-06-10T22:33:29.626Z,53062.55
2019-06-10T22:35:59.456Z,53040.81
2019-06-10T22:38:29.469Z,53087.25
2019-06-10T22:40:59.314Z,53115.89
2019-06-10T22:43:29.090Z,53057.61
2019-06-10T22:45:59.878Z,53079.34
2019-06-10T22:48:28.705Z,53071.44
2019-06-10T22:50:59.551Z,53143.55
2019-06-10T22:53:28.972Z,53215.68
2019-06-10T22:55:59.243Z,53260.14
2019-06-10T22:58:28.112Z,53213.70
2019-06-10T23:00:57.893Z,53181.10
2019-06-10T23:03:27.161Z,53196.91
2019-06-10T23:05:56.849Z,53225.55
2019-06-10T23:08:26.266Z,53200.86
2019-06-10T23:10:58.107Z,53211.73
2019-06-10T23:13:28.677Z,53184.06
2019-06-10T23:15:58.660Z,53248.28
2019-06-10T23:18:28.461Z,53229.51
2019-06-10T23:20:59.711Z,53271.99
2019-06-10T23:23:28.237Z,53252.23
2019-06-10T23:25:58.178Z,53300.64
2019-06-10T23:28:28.513Z,53305.58
2019-06-10T23:31:00.215Z,53299.66
2019-06-10T23:33:29.308Z,53302.62
2019-06-10T23:36:01.399Z,53279.89
2019-06-10T23:38:32.964Z,53253.22
2019-06-10T23:41:03.770Z,53264.09
2019-06-10T23:43:33.013Z,53263.10
2019-06-10T23:46:04.414Z,53243.34
2019-06-10T23:48:33.365Z,53240.38
2019-06-10T23:51:04.911Z,53172.21
2019-06-10T23:53:33.503Z,53177.15
2019-06-10T23:56:04.869Z,53149.48
2019-06-10T23:58:33.956Z,53158.37
